sensor_id;sensor_type;location;lat;lon;timestamp;P1;durP1;ratioP1;P2;durP2;ratioP2
67819;SDS011;54618;52.018;5.576;2023-05-07T00:00:33;2.90;;;1.50;;
67819;SDS011;54618;52.018;5.576;2023-05-07T00:02:59;3.75;;;1.80;;
67819;SDS011;54618;52.018;5.576;2023-05-07T00:05:24;3.67;;;1.70;;
67819;SDS011;54618;52.018;5.576;2023-05-07T00:07:50;3.10;;;1.45;;
67819;SDS011;54618;52.018;5.576;2023-05-07T00:10:17;3.78;;;1.60;;
67819;SDS011;54618;52.018;5.576;2023-05-07T00:12:43;3.85;;;1.58;;
67819;SDS011;54618;52.018;5.576;2023-05-07T00:15:10;3.72;;;1.52;;
67819;SDS011;54618;52.018;5.576;2023-05-07T00:17:36;2.47;;;1.40;;
67819;SDS011;54618;52.018;5.576;2023-05-07T00:20:02;3.90;;;1.65;;
67819;SDS011;54618;52.018;5.576;2023-05-07T00:22:29;5.63;;;1.55;;
67819;SDS011;54618;52.018;5.576;2023-05-07T00:24:56;3.92;;;1.70;;
67819;SDS011;54618;52.018;5.576;2023-05-07T00:27:22;3.75;;;1.48;;
67819;SDS011;54618;52.018;5.576;2023-05-07T00:29:47;3.45;;;1.60;;
67819;SDS011;54618;52.018;5.576;2023-05-07T00:32:13;2.70;;;1.30;;
67819;SDS011;54618;52.018;5.576;2023-05-07T00:34:39;5.25;;;1.70;;
67819;SDS011;54618;52.018;5.576;2023-05-07T00:37:05;3.42;;;1.30;;
67819;SDS011;54618;52.018;5.576;2023-05-07T00:39:32;3.50;;;1.27;;
67819;SDS011;54618;52.018;5.576;2023-05-07T00:41:58;3.80;;;1.50;;
67819;SDS011;54618;52.018;5.576;2023-05-07T00:44:25;2.75;;;1.40;;
67819;SDS011;54618;52.018;5.576;2023-05-07T00:46:51;3.03;;;1.42;;
67819;SDS011;54618;52.018;5.576;2023-05-07T00:49:17;3.35;;;1.48;;
67819;SDS011;54618;52.018;5.576;2023-05-07T00:51:43;4.90;;;1.75;;
67819;SDS011;54618;52.018;5.576;2023-05-07T00:54:10;3.22;;;1.48;;
67819;SDS011;54618;52.018;5.576;2023-05-07T00:56:36;4.15;;;1.50;;
67819;SDS011;54618;52.018;5.576;2023-05-07T00:59:02;3.10;;;1.30;;
67819;SDS011;54618;52.018;5.576;2023-05-07T01:01:28;3.88;;;1.60;;
67819;SDS011;54618;52.018;5.576;2023-05-07T01:03:54;2.95;;;1.50;;
67819;SDS011;54618;52.018;5.576;2023-05-07T01:06:20;3.47;;;1.30;;
67819;SDS011;54618;52.018;5.576;2023-05-07T01:08:48;3.53;;;1.27;;
67819;SDS011;54618;52.018;5.576;2023-05-07T01:11:15;4.18;;;1.50;;
67819;SDS011;54618;52.018;5.576;2023-05-07T01:13:41;3.75;;;1.42;;
67819;SDS011;54618;52.018;5.576;2023-05-07T01:16:08;2.95;;;1.40;;
67819;SDS011;54618;52.018;5.576;2023-05-07T01:18:34;3.42;;;1.35;;
67819;SDS011;54618;52.018;5.576;2023-05-07T01:21:00;2.85;;;1.38;;
67819;SDS011;54618;52.018;5.576;2023-05-07T01:23:28;3.13;;;1.50;;
67819;SDS011;54618;52.018;5.576;2023-05-07T01:25:55;3.72;;;1.40;;
67819;SDS011;54618;52.018;5.576;2023-05-07T01:28:21;2.92;;;1.30;;
67819;SDS011;54618;52.018;5.576;2023-05-07T01:30:48;2.90;;;1.33;;
67819;SDS011;54618;52.018;5.576;2023-05-07T01:33:24;2.42;;;1.20;;
67819;SDS011;54618;52.018;5.576;2023-05-07T01:35:53;2.65;;;1.30;;
67819;SDS011;54618;52.018;5.576;2023-05-07T01:38:19;3.10;;;1.58;;
67819;SDS011;54618;52.018;5.576;2023-05-07T01:40:46;3.30;;;1.40;;
67819;SDS011;54618;52.018;5.576;2023-05-07T01:43:12;3.42;;;1.50;;
67819;SDS011;54618;52.018;5.576;2023-05-07T01:45:38;2.53;;;1.25;;
67819;SDS011;54618;52.018;5.576;2023-05-07T01:48:05;3.15;;;1.33;;
67819;SDS011;54618;52.018;5.576;2023-05-07T01:50:32;2.80;;;1.42;;
67819;SDS011;54618;52.018;5.576;2023-05-07T01:52:58;3.35;;;1.30;;
67819;SDS011;54618;52.018;5.576;2023-05-07T01:55:24;2.63;;;1.38;;
67819;SDS011;54618;52.018;5.576;2023-05-07T01:57:49;2.30;;;1.40;;
67819;SDS011;54618;52.018;5.576;2023-05-07T02:00:15;3.85;;;1.45;;
67819;SDS011;54618;52.018;5.576;2023-05-07T02:02:41;2.95;;;1.33;;
67819;SDS011;54618;52.018;5.576;2023-05-07T02:05:06;2.72;;;1.50;;
67819;SDS011;54618;52.018;5.576;2023-05-07T02:07:32;2.33;;;1.30;;
67819;SDS011;54618;52.018;5.576;2023-05-07T02:09:58;2.97;;;1.35;;
67819;SDS011;54618;52.018;5.576;2023-05-07T02:12:23;3.33;;;1.58;;
67819;SDS011;54618;52.018;5.576;2023-05-07T02:14:49;2.10;;;1.20;;
67819;SDS011;54618;52.018;5.576;2023-05-07T02:17:14;2.67;;;1.30;;
67819;SDS011;54618;52.018;5.576;2023-05-07T02:19:40;2.75;;;1.40;;
67819;SDS011;54618;52.018;5.576;2023-05-07T02:22:06;2.38;;;1.50;;
67819;SDS011;54618;52.018;5.576;2023-05-07T02:24:32;2.42;;;1.30;;
67819;SDS011;54618;52.018;5.576;2023-05-07T02:26:57;3.75;;;1.45;;
67819;SDS011;54618;52.018;5.576;2023-05-07T02:29:23;2.90;;;1.30;;
67819;SDS011;54618;52.018;5.576;2023-05-07T02:31:48;2.72;;;1.40;;
67819;SDS011;54618;52.018;5.576;2023-05-07T02:34:16;3.15;;;1.50;;
67819;SDS011;54618;52.018;5.576;2023-05-07T02:36:41;2.58;;;1.35;;
67819;SDS011;54618;52.018;5.576;2023-05-07T02:39:07;3.15;;;1.63;;
67819;SDS011;54618;52.018;5.576;2023-05-07T02:41:33;2.40;;;1.15;;
67819;SDS011;54618;52.018;5.576;2023-05-07T02:43:58;2.25;;;1.20;;
67819;SDS011;54618;52.018;5.576;2023-05-07T02:46:24;2.35;;;1.17;;
67819;SDS011;54618;52.018;5.576;2023-05-07T02:48:49;2.33;;;1.10;;
67819;SDS011;54618;52.018;5.576;2023-05-07T02:51:16;2.58;;;1.25;;
67819;SDS011;54618;52.018;5.576;2023-05-07T02:53:45;3.33;;;1.20;;
67819;SDS011;54618;52.018;5.576;2023-05-07T02:56:11;2.75;;;1.33;;
67819;SDS011;54618;52.018;5.576;2023-05-07T02:58:36;2.90;;;1.40;;
67819;SDS011;54618;52.018;5.576;2023-05-07T03:01:04;2.33;;;1.30;;
67819;SDS011;54618;52.018;5.576;2023-05-07T03:03:33;2.88;;;1.30;;
67819;SDS011;54618;52.018;5.576;2023-05-07T03:05:59;2.53;;;1.23;;
67819;SDS011;54618;52.018;5.576;2023-05-07T03:08:24;2.63;;;1.20;;
67819;SDS011;54618;52.018;5.576;2023-05-07T03:10:50;3.55;;;1.40;;
67819;SDS011;54618;52.018;5.576;2023-05-07T03:13:15;2.60;;;1.45;;
67819;SDS011;54618;52.018;5.576;2023-05-07T03:15:41;3.33;;;1.23;;
67819;SDS011;54618;52.018;5.576;2023-05-07T03:18:07;2.80;;;1.50;;
67819;SDS011;54618;52.018;5.576;2023-05-07T03:20:32;2.13;;;1.20;;
67819;SDS011;54618;52.018;5.576;2023-05-07T03:22:58;2.30;;;1.10;;
67819;SDS011;54618;52.018;5.576;2023-05-07T03:25:23;3.30;;;1.52;;
67819;SDS011;54618;52.018;5.576;2023-05-07T03:27:49;1.73;;;1.02;;
67819;SDS011;54618;52.018;5.576;2023-05-07T03:30:14;2.47;;;1.30;;
67819;SDS011;54618;52.018;5.576;2023-05-07T03:32:40;2.60;;;1.30;;
67819;SDS011;54618;52.018;5.576;2023-05-07T03:35:06;2.70;;;1.27;;
67819;SDS011;54618;52.018;5.576;2023-05-07T03:37:32;3.30;;;1.27;;
67819;SDS011;54618;52.018;5.576;2023-05-07T03:39:57;2.85;;;1.33;;
67819;SDS011;54618;52.018;5.576;2023-05-07T03:42:23;3.25;;;1.40;;
67819;SDS011;54618;52.018;5.576;2023-05-07T03:44:49;2.17;;;1.17;;
67819;SDS011;54618;52.018;5.576;2023-05-07T03:47:14;3.20;;;1.50;;
67819;SDS011;54618;52.018;5.576;2023-05-07T03:49:40;3.20;;;1.38;;
67819;SDS011;54618;52.018;5.576;2023-05-07T03:52:05;1.98;;;1.17;;
67819;SDS011;54618;52.018;5.576;2023-05-07T03:54:31;1.92;;;1.30;;
67819;SDS011;54618;52.018;5.576;2023-05-07T03:56:57;2.58;;;1.30;;
67819;SDS011;54618;52.018;5.576;2023-05-07T03:59:22;2.33;;;1.20;;
67819;SDS011;54618;52.018;5.576;2023-05-07T04:01:48;2.78;;;1.10;;
67819;SDS011;54618;52.018;5.576;2023-05-07T04:04:14;1.98;;;1.38;;
67819;SDS011;54618;52.018;5.576;2023-05-07T04:06:39;2.53;;;1.33;;
67819;SDS011;54618;52.018;5.576;2023-05-07T04:09:06;2.70;;;1.20;;
67819;SDS011;54618;52.018;5.576;2023-05-07T04:11:31;2.33;;;1.30;;
67819;SDS011;54618;52.018;5.576;2023-05-07T04:13:57;2.33;;;1.40;;
67819;SDS011;54618;52.018;5.576;2023-05-07T04:16:22;2.30;;;1.30;;
67819;SDS011;54618;52.018;5.576;2023-05-07T04:18:48;2.42;;;1.30;;
67819;SDS011;54618;52.018;5.576;2023-05-07T04:21:17;2.50;;;1.13;;
67819;SDS011;54618;52.018;5.576;2023-05-07T04:23:44;2.67;;;1.27;;
67819;SDS011;54618;52.018;5.576;2023-05-07T04:26:10;2.30;;;1.20;;
67819;SDS011;54618;52.018;5.576;2023-05-07T04:28:36;2.00;;;1.20;;
67819;SDS011;54618;52.018;5.576;2023-05-07T04:31:01;2.75;;;1.40;;
67819;SDS011;54618;52.018;5.576;2023-05-07T04:33:27;2.33;;;1.25;;
67819;SDS011;54618;52.018;5.576;2023-05-07T04:35:53;2.13;;;1.20;;
67819;SDS011;54618;52.018;5.576;2023-05-07T04:38:18;3.53;;;1.40;;
67819;SDS011;54618;52.018;5.576;2023-05-07T04:40:44;3.38;;;1.35;;
67819;SDS011;54618;52.018;5.576;2023-05-07T04:43:11;2.65;;;1.38;;
67819;SDS011;54618;52.018;5.576;2023-05-07T04:45:38;2.33;;;1.35;;
67819;SDS011;54618;52.018;5.576;2023-05-07T04:48:06;2.28;;;1.35;;
67819;SDS011;54618;52.018;5.576;2023-05-07T04:50:32;2.63;;;1.50;;
67819;SDS011;54618;52.018;5.576;2023-05-07T04:52:57;1.92;;;1.08;;
67819;SDS011;54618;52.018;5.576;2023-05-07T04:55:23;2.15;;;1.27;;
67819;SDS011;54618;52.018;5.576;2023-05-07T04:57:48;2.28;;;1.20;;
67819;SDS011;54618;52.018;5.576;2023-05-07T05:00:15;2.20;;;1.30;;
67819;SDS011;54618;52.018;5.576;2023-05-07T05:02:41;2.40;;;1.20;;
67819;SDS011;54618;52.018;5.576;2023-05-07T05:05:07;2.03;;;1.30;;
67819;SDS011;54618;52.018;5.576;2023-05-07T05:07:32;2.58;;;1.20;;
67819;SDS011;54618;52.018;5.576;2023-05-07T05:09:58;2.03;;;1.20;;
67819;SDS011;54618;52.018;5.576;2023-05-07T05:12:24;2.35;;;1.30;;
67819;SDS011;54618;52.018;5.576;2023-05-07T05:14:49;2.47;;;1.30;;
67819;SDS011;54618;52.018;5.576;2023-05-07T05:17:15;2.65;;;1.33;;
67819;SDS011;54618;52.018;5.576;2023-05-07T05:19:40;2.17;;;1.00;;
67819;SDS011;54618;52.018;5.576;2023-05-07T05:22:06;2.28;;;1.30;;
67819;SDS011;54618;52.018;5.576;2023-05-07T05:24:31;2.20;;;1.17;;
67819;SDS011;54618;52.018;5.576;2023-05-07T05:26:57;3.05;;;1.40;;
67819;SDS011;54618;52.018;5.576;2023-05-07T05:29:24;2.15;;;1.10;;
67819;SDS011;54618;52.018;5.576;2023-05-07T05:31:50;2.78;;;1.20;;
67819;SDS011;54618;52.018;5.576;2023-05-07T05:34:15;1.77;;;1.10;;
67819;SDS011;54618;52.018;5.576;2023-05-07T05:36:42;1.83;;;1.10;;
67819;SDS011;54618;52.018;5.576;2023-05-07T05:39:08;2.28;;;1.20;;
67819;SDS011;54618;52.018;5.576;2023-05-07T05:41:33;1.63;;;1.00;;
67819;SDS011;54618;52.018;5.576;2023-05-07T05:43:59;1.73;;;1.00;;
67819;SDS011;54618;52.018;5.576;2023-05-07T05:46:24;2.33;;;1.08;;
67819;SDS011;54618;52.018;5.576;2023-05-07T05:48:50;1.33;;;0.95;;
67819;SDS011;54618;52.018;5.576;2023-05-07T05:51:15;1.38;;;0.88;;
67819;SDS011;54618;52.018;5.576;2023-05-07T05:53:41;1.40;;;0.85;;
67819;SDS011;54618;52.018;5.576;2023-05-07T05:56:07;2.20;;;1.17;;
67819;SDS011;54618;52.018;5.576;2023-05-07T05:58:32;1.45;;;0.73;;
67819;SDS011;54618;52.018;5.576;2023-05-07T06:00:58;1.70;;;1.00;;
67819;SDS011;54618;52.018;5.576;2023-05-07T06:03:23;1.73;;;1.02;;
67819;SDS011;54618;52.018;5.576;2023-05-07T06:05:49;1.80;;;0.90;;
67819;SDS011;54618;52.018;5.576;2023-05-07T06:08:15;1.55;;;0.75;;
67819;SDS011;54618;52.018;5.576;2023-05-07T06:10:40;1.90;;;0.88;;
67819;SDS011;54618;52.018;5.576;2023-05-07T06:13:06;2.03;;;1.20;;
67819;SDS011;54618;52.018;5.576;2023-05-07T06:15:32;1.88;;;1.10;;
67819;SDS011;54618;52.018;5.576;2023-05-07T06:17:57;1.40;;;0.82;;
67819;SDS011;54618;52.018;5.576;2023-05-07T06:20:23;2.10;;;1.13;;
67819;SDS011;54618;52.018;5.576;2023-05-07T06:22:48;2.33;;;1.00;;
67819;SDS011;54618;52.018;5.576;2023-05-07T06:25:15;1.95;;;1.20;;
67819;SDS011;54618;52.018;5.576;2023-05-07T06:27:40;2.03;;;0.93;;
67819;SDS011;54618;52.018;5.576;2023-05-07T06:30:06;2.15;;;0.98;;
67819;SDS011;54618;52.018;5.576;2023-05-07T06:32:32;1.83;;;0.98;;
67819;SDS011;54618;52.018;5.576;2023-05-07T06:34:57;1.67;;;1.05;;
67819;SDS011;54618;52.018;5.576;2023-05-07T06:37:23;3.42;;;1.30;;
67819;SDS011;54618;52.018;5.576;2023-05-07T06:39:49;1.48;;;0.90;;
67819;SDS011;54618;52.018;5.576;2023-05-07T06:42:15;1.33;;;0.90;;
67819;SDS011;54618;52.018;5.576;2023-05-07T06:44:40;1.95;;;0.90;;
67819;SDS011;54618;52.018;5.576;2023-05-07T06:47:06;1.85;;;0.98;;
67819;SDS011;54618;52.018;5.576;2023-05-07T06:49:31;2.30;;;0.95;;
67819;SDS011;54618;52.018;5.576;2023-05-07T06:51:57;2.17;;;1.20;;
67819;SDS011;54618;52.018;5.576;2023-05-07T06:54:23;1.73;;;1.13;;
67819;SDS011;54618;52.018;5.576;2023-05-07T06:56:48;1.52;;;1.00;;
67819;SDS011;54618;52.018;5.576;2023-05-07T06:59:14;1.67;;;1.02;;
67819;SDS011;54618;52.018;5.576;2023-05-07T07:01:40;1.50;;;1.00;;
67819;SDS011;54618;52.018;5.576;2023-05-07T07:04:05;2.30;;;1.30;;
67819;SDS011;54618;52.018;5.576;2023-05-07T07:06:31;1.27;;;0.80;;
67819;SDS011;54618;52.018;5.576;2023-05-07T07:08:57;1.92;;;1.00;;
67819;SDS011;54618;52.018;5.576;2023-05-07T07:11:23;1.75;;;1.00;;
67819;SDS011;54618;52.018;5.576;2023-05-07T07:13:49;1.45;;;0.80;;
67819;SDS011;54618;52.018;5.576;2023-05-07T07:16:15;2.53;;;1.10;;
67819;SDS011;54618;52.018;5.576;2023-05-07T07:18:41;1.75;;;1.00;;
67819;SDS011;54618;52.018;5.576;2023-05-07T07:21:07;2.25;;;1.20;;
67819;SDS011;54618;52.018;5.576;2023-05-07T07:23:32;1.40;;;1.00;;
67819;SDS011;54618;52.018;5.576;2023-05-07T07:25:58;1.15;;;0.80;;
67819;SDS011;54618;52.018;5.576;2023-05-07T07:28:23;1.58;;;0.98;;
67819;SDS011;54618;52.018;5.576;2023-05-07T07:30:49;1.55;;;0.90;;
67819;SDS011;54618;52.018;5.576;2023-05-07T07:33:15;1.25;;;0.80;;
67819;SDS011;54618;52.018;5.576;2023-05-07T07:35:40;2.17;;;1.20;;
67819;SDS011;54618;52.018;5.576;2023-05-07T07:38:06;1.85;;;1.23;;
67819;SDS011;54618;52.018;5.576;2023-05-07T07:40:34;1.70;;;0.93;;
67819;SDS011;54618;52.018;5.576;2023-05-07T07:43:00;1.73;;;1.10;;
67819;SDS011;54618;52.018;5.576;2023-05-07T07:45:26;1.42;;;1.00;;
67819;SDS011;54618;52.018;5.576;2023-05-07T07:47:51;1.63;;;0.73;;
67819;SDS011;54618;52.018;5.576;2023-05-07T07:50:17;1.52;;;0.98;;
67819;SDS011;54618;52.018;5.576;2023-05-07T07:52:43;2.30;;;0.90;;
67819;SDS011;54618;52.018;5.576;2023-05-07T07:55:09;1.15;;;0.80;;
67819;SDS011;54618;52.018;5.576;2023-05-07T07:57:35;1.00;;;0.73;;
67819;SDS011;54618;52.018;5.576;2023-05-07T08:00:00;1.35;;;0.85;;
67819;SDS011;54618;52.018;5.576;2023-05-07T08:02:26;2.03;;;1.20;;
67819;SDS011;54618;52.018;5.576;2023-05-07T08:04:51;1.00;;;0.80;;
67819;SDS011;54618;52.018;5.576;2023-05-07T08:07:17;1.55;;;0.95;;
67819;SDS011;54618;52.018;5.576;2023-05-07T08:09:45;1.65;;;0.98;;
67819;SDS011;54618;52.018;5.576;2023-05-07T08:12:11;1.65;;;1.00;;
67819;SDS011;54618;52.018;5.576;2023-05-07T08:14:36;1.95;;;1.10;;
67819;SDS011;54618;52.018;5.576;2023-05-07T08:17:02;1.45;;;0.73;;
67819;SDS011;54618;52.018;5.576;2023-05-07T08:19:27;1.48;;;0.95;;
67819;SDS011;54618;52.018;5.576;2023-05-07T08:21:53;5.93;;;1.20;;
67819;SDS011;54618;52.018;5.576;2023-05-07T08:24:18;2.60;;;1.00;;
67819;SDS011;54618;52.018;5.576;2023-05-07T08:26:44;2.35;;;1.00;;
67819;SDS011;54618;52.018;5.576;2023-05-07T08:29:10;1.48;;;0.73;;
67819;SDS011;54618;52.018;5.576;2023-05-07T08:31:35;2.28;;;1.00;;
67819;SDS011;54618;52.018;5.576;2023-05-07T08:34:03;2.70;;;1.38;;
67819;SDS011;54618;52.018;5.576;2023-05-07T08:36:29;1.38;;;0.80;;
67819;SDS011;54618;52.018;5.576;2023-05-07T08:38:54;3.58;;;0.65;;
67819;SDS011;54618;52.018;5.576;2023-05-07T08:41:20;3.50;;;1.20;;
67819;SDS011;54618;52.018;5.576;2023-05-07T08:43:49;2.05;;;1.17;;
67819;SDS011;54618;52.018;5.576;2023-05-07T08:46:17;2.65;;;1.00;;
67819;SDS011;54618;52.018;5.576;2023-05-07T08:48:44;2.35;;;0.90;;
67819;SDS011;54618;52.018;5.576;2023-05-07T08:51:13;2.45;;;1.00;;
67819;SDS011;54618;52.018;5.576;2023-05-07T08:53:40;1.30;;;0.90;;
67819;SDS011;54618;52.018;5.576;2023-05-07T08:56:06;1.80;;;1.02;;
67819;SDS011;54618;52.018;5.576;2023-05-07T08:58:34;1.90;;;1.00;;
67819;SDS011;54618;52.018;5.576;2023-05-07T09:01:06;1.98;;;0.80;;
67819;SDS011;54618;52.018;5.576;2023-05-07T09:03:34;2.28;;;1.00;;
67819;SDS011;54618;52.018;5.576;2023-05-07T09:06:01;1.15;;;0.80;;
67819;SDS011;54618;52.018;5.576;2023-05-07T09:08:27;1.42;;;0.90;;
67819;SDS011;54618;52.018;5.576;2023-05-07T09:10:53;1.48;;;0.77;;
67819;SDS011;54618;52.018;5.576;2023-05-07T09:13:19;2.58;;;1.20;;
67819;SDS011;54618;52.018;5.576;2023-05-07T09:15:45;2.38;;;0.90;;
67819;SDS011;54618;52.018;5.576;2023-05-07T09:18:12;1.52;;;0.90;;
67819;SDS011;54618;52.018;5.576;2023-05-07T09:20:37;1.92;;;1.10;;
67819;SDS011;54618;52.018;5.576;2023-05-07T09:23:03;1.23;;;0.90;;
67819;SDS011;54618;52.018;5.576;2023-05-07T09:25:30;1.92;;;0.93;;
67819;SDS011;54618;52.018;5.576;2023-05-07T09:27:56;2.28;;;1.13;;
67819;SDS011;54618;52.018;5.576;2023-05-07T09:30:23;2.05;;;0.90;;
67819;SDS011;54618;52.018;5.576;2023-05-07T09:32:52;1.45;;;0.90;;
67819;SDS011;54618;52.018;5.576;2023-05-07T09:35:18;1.98;;;1.00;;
67819;SDS011;54618;52.018;5.576;2023-05-07T09:37:46;3.08;;;1.08;;
67819;SDS011;54618;52.018;5.576;2023-05-07T09:40:24;1.42;;;1.00;;
67819;SDS011;54618;52.018;5.576;2023-05-07T09:42:51;1.90;;;1.05;;
67819;SDS011;54618;52.018;5.576;2023-05-07T09:45:26;3.38;;;0.80;;
67819;SDS011;54618;52.018;5.576;2023-05-07T09:47:56;1.75;;;0.85;;
67819;SDS011;54618;52.018;5.576;2023-05-07T09:50:25;1.58;;;0.80;;
67819;SDS011;54618;52.018;5.576;2023-05-07T09:52:53;2.65;;;0.88;;
67819;SDS011;54618;52.018;5.576;2023-05-07T09:55:20;2.97;;;1.05;;
67819;SDS011;54618;52.018;5.576;2023-05-07T09:57:48;2.70;;;0.93;;
67819;SDS011;54618;52.018;5.576;2023-05-07T10:00:21;1.67;;;0.93;;
67819;SDS011;54618;52.018;5.576;2023-05-07T10:02:51;2.58;;;0.93;;
67819;SDS011;54618;52.018;5.576;2023-05-07T10:05:21;1.93;;;0.77;;
67819;SDS011;54618;52.018;5.576;2023-05-07T10:07:47;3.08;;;0.90;;
67819;SDS011;54618;52.018;5.576;2023-05-07T10:10:14;2.45;;;0.95;;
67819;SDS011;54618;52.018;5.576;2023-05-07T10:12:43;2.40;;;1.10;;
67819;SDS011;54618;52.018;5.576;2023-05-07T10:15:11;2.95;;;1.20;;
67819;SDS011;54618;52.018;5.576;2023-05-07T10:17:37;3.92;;;1.13;;
67819;SDS011;54618;52.018;5.576;2023-05-07T10:20:04;1.77;;;1.10;;
67819;SDS011;54618;52.018;5.576;2023-05-07T10:22:52;2.55;;;1.10;;
67819;SDS011;54618;52.018;5.576;2023-05-07T10:25:25;3.83;;;1.17;;
67819;SDS011;54618;52.018;5.576;2023-05-07T10:27:55;4.97;;;1.00;;
67819;SDS011;54618;52.018;5.576;2023-05-07T10:33:13;2.00;;;1.00;;
67819;SDS011;54618;52.018;5.576;2023-05-07T10:35:42;2.25;;;0.90;;
67819;SDS011;54618;52.018;5.576;2023-05-07T10:38:10;1.80;;;1.10;;
67819;SDS011;54618;52.018;5.576;2023-05-07T10:40:36;2.00;;;1.35;;
67819;SDS011;54618;52.018;5.576;2023-05-07T10:43:02;2.70;;;1.13;;
67819;SDS011;54618;52.018;5.576;2023-05-07T10:45:32;2.30;;;1.00;;
67819;SDS011;54618;52.018;5.576;2023-05-07T10:50:40;2.92;;;1.00;;
67819;SDS011;54618;52.018;5.576;2023-05-07T10:55:41;2.58;;;0.93;;
67819;SDS011;54618;52.018;5.576;2023-05-07T11:00:56;3.55;;;1.10;;
67819;SDS011;54618;52.018;5.576;2023-05-07T11:03:23;3.03;;;1.00;;
67819;SDS011;54618;52.018;5.576;2023-05-07T11:06:08;5.97;;;1.40;;
67819;SDS011;54618;52.018;5.576;2023-05-07T11:17:06;3.50;;;1.10;;
67819;SDS011;54618;52.018;5.576;2023-05-07T11:19:54;3.75;;;1.27;;
67819;SDS011;54618;52.018;5.576;2023-05-07T11:24:55;3.00;;;1.00;;
67819;SDS011;54618;52.018;5.576;2023-05-07T11:27:25;3.17;;;1.00;;
67819;SDS011;54618;52.018;5.576;2023-05-07T11:29:51;2.50;;;1.00;;
67819;SDS011;54618;52.018;5.576;2023-05-07T11:32:24;6.25;;;1.05;;
67819;SDS011;54618;52.018;5.576;2023-05-07T11:34:54;1.65;;;1.02;;
67819;SDS011;54618;52.018;5.576;2023-05-07T11:37:20;3.30;;;1.20;;
67819;SDS011;54618;52.018;5.576;2023-05-07T11:39:46;2.50;;;1.10;;
67819;SDS011;54618;52.018;5.576;2023-05-07T11:42:31;3.90;;;1.00;;
67819;SDS011;54618;52.018;5.576;2023-05-07T11:44:59;2.63;;;1.05;;
67819;SDS011;54618;52.018;5.576;2023-05-07T11:47:24;3.28;;;0.90;;
67819;SDS011;54618;52.018;5.576;2023-05-07T11:49:53;2.75;;;0.90;;
67819;SDS011;54618;52.018;5.576;2023-05-07T11:52:20;2.80;;;1.00;;
67819;SDS011;54618;52.018;5.576;2023-05-07T11:54:50;2.10;;;1.08;;
67819;SDS011;54618;52.018;5.576;2023-05-07T11:57:21;3.50;;;1.00;;
67819;SDS011;54618;52.018;5.576;2023-05-07T11:59:47;1.95;;;1.00;;
67819;SDS011;54618;52.018;5.576;2023-05-07T12:02:17;2.85;;;1.00;;
67819;SDS011;54618;52.018;5.576;2023-05-07T12:04:43;1.75;;;0.90;;
67819;SDS011;54618;52.018;5.576;2023-05-07T12:07:12;2.85;;;1.00;;
67819;SDS011;54618;52.018;5.576;2023-05-07T12:09:42;2.85;;;1.00;;
67819;SDS011;54618;52.018;5.576;2023-05-07T12:12:08;2.38;;;0.90;;
67819;SDS011;54618;52.018;5.576;2023-05-07T12:14:43;3.50;;;0.88;;
67819;SDS011;54618;52.018;5.576;2023-05-07T12:17:10;2.75;;;1.00;;
67819;SDS011;54618;52.018;5.576;2023-05-07T12:19:37;5.43;;;1.00;;
67819;SDS011;54618;52.018;5.576;2023-05-07T12:22:04;4.85;;;1.10;;
67819;SDS011;54618;52.018;5.576;2023-05-07T12:24:46;1.38;;;0.88;;
67819;SDS011;54618;52.018;5.576;2023-05-07T12:27:21;2.38;;;1.10;;
67819;SDS011;54618;52.018;5.576;2023-05-07T12:29:47;2.47;;;1.10;;
67819;SDS011;54618;52.018;5.576;2023-05-07T12:32:17;2.65;;;0.98;;
67819;SDS011;54618;52.018;5.576;2023-05-07T12:34:44;2.97;;;1.10;;
67819;SDS011;54618;52.018;5.576;2023-05-07T12:37:10;1.60;;;0.90;;
67819;SDS011;54618;52.018;5.576;2023-05-07T12:39:37;2.08;;;1.00;;
67819;SDS011;54618;52.018;5.576;2023-05-07T12:42:03;3.42;;;1.10;;
67819;SDS011;54618;52.018;5.576;2023-05-07T12:44:29;2.00;;;0.90;;
67819;SDS011;54618;52.018;5.576;2023-05-07T12:46:56;5.15;;;1.20;;
67819;SDS011;54618;52.018;5.576;2023-05-07T12:49:22;1.60;;;1.00;;
67819;SDS011;54618;52.018;5.576;2023-05-07T12:51:48;2.35;;;1.00;;
67819;SDS011;54618;52.018;5.576;2023-05-07T12:54:37;2.42;;;0.88;;
67819;SDS011;54618;52.018;5.576;2023-05-07T12:57:06;1.67;;;0.90;;
67819;SDS011;54618;52.018;5.576;2023-05-07T12:59:33;1.23;;;0.90;;
67819;SDS011;54618;52.018;5.576;2023-05-07T13:02:01;2.65;;;1.00;;
67819;SDS011;54618;52.018;5.576;2023-05-07T13:04:26;1.88;;;0.90;;
67819;SDS011;54618;52.018;5.576;2023-05-07T13:06:52;2.88;;;1.00;;
67819;SDS011;54618;52.018;5.576;2023-05-07T13:09:17;1.70;;;0.88;;
67819;SDS011;54618;52.018;5.576;2023-05-07T13:11:43;2.17;;;1.00;;
67819;SDS011;54618;52.018;5.576;2023-05-07T13:14:08;5.80;;;1.67;;
67819;SDS011;54618;52.018;5.576;2023-05-07T13:16:34;3.55;;;1.13;;
67819;SDS011;54618;52.018;5.576;2023-05-07T13:18:59;2.90;;;1.17;;
67819;SDS011;54618;52.018;5.576;2023-05-07T13:21:25;2.28;;;0.98;;
67819;SDS011;54618;52.018;5.576;2023-05-07T13:23:51;2.42;;;1.08;;
67819;SDS011;54618;52.018;5.576;2023-05-07T13:26:17;3.05;;;1.33;;
67819;SDS011;54618;52.018;5.576;2023-05-07T13:28:43;1.27;;;0.98;;
67819;SDS011;54618;52.018;5.576;2023-05-07T13:31:08;2.78;;;1.20;;
67819;SDS011;54618;52.018;5.576;2023-05-07T13:33:34;1.98;;;0.98;;
67819;SDS011;54618;52.018;5.576;2023-05-07T13:36:00;1.90;;;0.90;;
67819;SDS011;54618;52.018;5.576;2023-05-07T13:38:28;2.45;;;0.90;;
67819;SDS011;54618;52.018;5.576;2023-05-07T13:40:54;1.70;;;1.00;;
67819;SDS011;54618;52.018;5.576;2023-05-07T13:43:20;1.73;;;1.00;;
67819;SDS011;54618;52.018;5.576;2023-05-07T13:45:45;2.63;;;1.20;;
67819;SDS011;54618;52.018;5.576;2023-05-07T13:48:11;2.35;;;1.00;;
67819;SDS011;54618;52.018;5.576;2023-05-07T13:50:36;1.23;;;1.00;;
67819;SDS011;54618;52.018;5.576;2023-05-07T13:53:02;1.63;;;0.90;;
67819;SDS011;54618;52.018;5.576;2023-05-07T13:55:28;2.55;;;1.00;;
67819;SDS011;54618;52.018;5.576;2023-05-07T13:57:58;2.55;;;1.08;;
67819;SDS011;54618;52.018;5.576;2023-05-07T14:00:25;2.13;;;1.10;;
67819;SDS011;54618;52.018;5.576;2023-05-07T14:02:51;1.77;;;1.00;;
67819;SDS011;54618;52.018;5.576;2023-05-07T14:05:17;1.58;;;1.10;;
67819;SDS011;54618;52.018;5.576;2023-05-07T14:07:43;3.58;;;1.10;;
67819;SDS011;54618;52.018;5.576;2023-05-07T14:10:08;1.30;;;1.00;;
67819;SDS011;54618;52.018;5.576;2023-05-07T14:12:35;1.85;;;1.00;;
67819;SDS011;54618;52.018;5.576;2023-05-07T14:15:01;1.83;;;1.08;;
67819;SDS011;54618;52.018;5.576;2023-05-07T14:17:27;1.75;;;1.10;;
67819;SDS011;54618;52.018;5.576;2023-05-07T14:19:53;1.55;;;1.10;;
67819;SDS011;54618;52.018;5.576;2023-05-07T14:22:19;2.35;;;1.10;;
67819;SDS011;54618;52.018;5.576;2023-05-07T14:24:48;2.20;;;1.20;;
67819;SDS011;54618;52.018;5.576;2023-05-07T14:27:14;2.17;;;1.17;;
67819;SDS011;54618;52.018;5.576;2023-05-07T14:29:40;1.75;;;1.10;;
67819;SDS011;54618;52.018;5.576;2023-05-07T14:32:07;1.17;;;0.85;;
67819;SDS011;54618;52.018;5.576;2023-05-07T14:34:32;1.58;;;0.88;;
67819;SDS011;54618;52.018;5.576;2023-05-07T14:36:59;1.65;;;1.02;;
67819;SDS011;54618;52.018;5.576;2023-05-07T14:39:25;2.00;;;1.17;;
67819;SDS011;54618;52.018;5.576;2023-05-07T14:41:51;1.92;;;1.17;;
67819;SDS011;54618;52.018;5.576;2023-05-07T14:44:16;2.20;;;1.10;;
67819;SDS011;54618;52.018;5.576;2023-05-07T14:46:42;1.73;;;1.02;;
67819;SDS011;54618;52.018;5.576;2023-05-07T14:49:07;1.33;;;0.90;;
67819;SDS011;54618;52.018;5.576;2023-05-07T14:51:41;3.08;;;1.20;;
67819;SDS011;54618;52.018;5.576;2023-05-07T14:54:06;2.22;;;1.08;;
67819;SDS011;54618;52.018;5.576;2023-05-07T14:56:32;1.63;;;1.00;;
67819;SDS011;54618;52.018;5.576;2023-05-07T14:59:00;1.55;;;1.00;;
67819;SDS011;54618;52.018;5.576;2023-05-07T15:01:25;2.28;;;0.80;;
67819;SDS011;54618;52.018;5.576;2023-05-07T15:03:51;2.25;;;0.95;;
67819;SDS011;54618;52.018;5.576;2023-05-07T15:06:17;1.98;;;1.00;;